createdAt,value
2019-05-29T00:01:42.957Z,101049.83
2019-05-29T00:04:14.506Z,101047.45
2019-05-29T00:06:45.671Z,101062.35
2019-05-29T00:09:18.477Z,101055.38
2019-05-29T00:11:49.592Z,101057.63
2019-05-29T00:14:27.140Z,101062.72
2019-05-29T00:16:53.447Z,101070.64
2019-05-29T00:19:24.569Z,101072.98
2019-05-29T00:21:55.680Z,101074.57
2019-05-29T00:24:29.155Z,101079.92
2019-05-29T00:27:01.055Z,101084.45
2019-05-29T00:29:32.120Z,101085.56
2019-05-29T00:32:03.179Z,101082.72
2019-05-29T00:34:35.865Z,101085.62
2019-05-29T00:37:08.392Z,101090.50
2019-05-29T00:39:41.251Z,101091.42
2019-05-29T00:42:13.249Z,101100.47
2019-05-29T00:44:46.555Z,101101.03
2019-05-29T00:47:19.107Z,101095.91
2019-05-29T00:49:50.219Z,101107.42
2019-05-29T00:52:21.274Z,101112.30
2019-05-29T00:54:53.932Z,101112.10
2019-05-29T00:57:24.961Z,101106.97
2019-05-29T00:59:56.013Z,101112.97
2019-05-29T01:02:27.068Z,101112.45
2019-05-29T01:04:58.150Z,101109.20
2019-05-29T01:07:29.232Z,101118.32
2019-05-29T01:10:01.090Z,101121.02
2019-05-29T01:12:32.127Z,101127.31
2019-05-29T01:15:03.225Z,101125.63
2019-05-29T01:17:34.251Z,101131.45
2019-05-29T01:20:07.131Z,101132.84
2019-05-29T01:22:38.175Z,101139.53
2019-05-29T01:25:09.287Z,101142.78
2019-05-29T01:27:41.961Z,101144.20
2019-05-29T01:30:13.193Z,101144.89
2019-05-29T01:32:44.319Z,101149.41
2019-05-29T01:35:15.748Z,101154.28
2019-05-29T01:37:46.815Z,101160.20
2019-05-29T01:40:22.172Z,101162.13
2019-05-29T01:42:50.691Z,101168.50
2019-05-29T01:45:21.876Z,101164.33
2019-05-29T01:47:55.366Z,101165.02
2019-05-29T01:50:26.443Z,101170.93
2019-05-29T01:52:57.506Z,101172.48
2019-05-29T01:55:28.616Z,101167.64
2019-05-29T01:58:01.185Z,101169.91
2019-05-29T02:00:32.247Z,101177.16
2019-05-29T02:03:03.336Z,101182.20
2019-05-29T02:05:34.397Z,101190.66
2019-05-29T02:08:05.456Z,101189.94
2019-05-29T02:10:36.720Z,101195.44
2019-05-29T02:13:07.792Z,101192.03
2019-05-29T02:15:38.844Z,101192.17
2019-05-29T02:18:09.922Z,101192.71
2019-05-29T02:20:40.996Z,101199.90
2019-05-29T02:23:12.145Z,101201.76
2019-05-29T02:25:43.318Z,101204.48
2019-05-29T02:28:16.265Z,101202.52
2019-05-29T02:30:47.445Z,101211.38
2019-05-29T02:33:21.722Z,101209.79
2019-05-29T02:35:53.041Z,101217.78
2019-05-29T02:38:24.967Z,101213.91
2019-05-29T02:40:56.850Z,101220.88
2019-05-29T02:43:29.742Z,101223.83
2019-05-29T02:46:01.432Z,101232.84
2019-05-29T02:48:32.522Z,101241.98
2019-05-29T02:51:03.636Z,101248.39
2019-05-29T02:53:34.723Z,101250.86
2019-05-29T02:56:08.131Z,101255.45
2019-05-29T02:58:39.156Z,101262.14
2019-05-29T03:01:10.356Z,101262.01
2019-05-29T03:03:41.441Z,101261.33
2019-05-29T03:06:13.168Z,101264.20
2019-05-29T03:08:44.210Z,101266.73
2019-05-29T03:11:15.319Z,101268.69
2019-05-29T03:13:46.774Z,101266.28
2019-05-29T03:16:19.648Z,101270.47
2019-05-29T03:18:50.709Z,101270.24
2019-05-29T03:21:21.981Z,101267.92
2019-05-29T03:23:53.042Z,101280.98
2019-05-29T03:26:26.551Z,101284.77
2019-05-29T03:28:57.837Z,101285.02
2019-05-29T03:31:36.870Z,101290.13
2019-05-29T03:34:01.650Z,101293.03
2019-05-29T03:36:39.633Z,101300.77
2019-05-29T03:39:06.888Z,101300.63
2019-05-29T03:41:38.957Z,101308.64
2019-05-29T03:44:11.862Z,101316.33
2019-05-29T03:46:46.015Z,101317.88
2019-05-29T03:49:15.769Z,101321.06
2019-05-29T03:51:46.872Z,101318.28
2019-05-29T03:54:17.914Z,101322.41
2019-05-29T03:56:49.851Z,101326.51
2019-05-29T03:59:22.566Z,101325.77
2019-05-29T04:01:53.676Z,101335.45
2019-05-29T04:04:24.818Z,101346.09
2019-05-29T04:06:55.907Z,101353.73
2019-05-29T04:09:27.223Z,101353.80
2019-05-29T04:11:58.425Z,101361.26
2019-05-29T04:14:30.232Z,101370.39
2019-05-29T04:17:04.689Z,101376.22
2019-05-29T04:19:36.888Z,101379.70
2019-05-29T04:22:11.949Z,101368.07
2019-05-29T04:24:43.098Z,101370.88
2019-05-29T04:27:16.643Z,101363.72
2019-05-29T04:29:49.488Z,101376.60
2019-05-29T04:32:20.637Z,101382.52
2019-05-29T04:34:53.215Z,101383.56
2019-05-29T04:37:25.570Z,101388.75
2019-05-29T04:39:56.615Z,101387.83
2019-05-29T04:42:31.984Z,101389.61
2019-05-29T04:45:02.749Z,101394.44
2019-05-29T04:47:35.098Z,101397.14
2019-05-29T04:50:09.439Z,101402.06
2019-05-29T04:52:40.666Z,101403.56
2019-05-29T04:55:11.811Z,101407.14
2019-05-29T04:57:45.315Z,101409.13
2019-05-29T05:00:18.120Z,101402.03
2019-05-29T05:02:50.867Z,101407.12
2019-05-29T05:05:23.535Z,101408.17
2019-05-29T05:07:56.234Z,101409.50
2019-05-29T05:10:40.758Z,101416.45
2019-05-29T05:13:13.139Z,101421.59
2019-05-29T05:15:46.913Z,101423.45
2019-05-29T05:18:18.082Z,101427.38
2019-05-29T05:20:52.363Z,101433.55
2019-05-29T05:23:23.472Z,101439.31
2019-05-29T05:25:56.098Z,101441.14
2019-05-29T05:28:28.160Z,101445.59
2019-05-29T05:31:00.095Z,101448.23
2019-05-29T05:33:32.360Z,101444.96
2019-05-29T05:36:03.521Z,101443.97
2019-05-29T05:38:34.691Z,101443.55
2019-05-29T05:41:07.346Z,101448.70
2019-05-29T05:43:41.402Z,101450.27
2019-05-29T05:46:12.599Z,101443.87
2019-05-29T05:48:44.484Z,101469.42
2019-05-29T05:51:17.060Z,101473.87
2019-05-29T05:53:48.165Z,101469.38
2019-05-29T05:56:19.266Z,101472.32
2019-05-29T05:58:53.451Z,101469.92
2019-05-29T06:01:24.502Z,101472.88
2019-05-29T06:03:55.606Z,101476.69
2019-05-29T06:06:26.691Z,101485.02
2019-05-29T06:08:57.757Z,101493.39
2019-05-29T06:11:28.814Z,101485.63
2019-05-29T06:13:59.912Z,101488.64
2019-05-29T06:16:32.683Z,101493.80
2019-05-29T06:19:03.764Z,101492.33
2019-05-29T06:21:34.801Z,101498.73
2019-05-29T06:24:05.902Z,101516.45
2019-05-29T06:26:36.987Z,101508.48
2019-05-29T06:29:08.873Z,101510.70
2019-05-29T06:31:41.458Z,101518.94
2019-05-29T06:34:12.528Z,101521.35
2019-05-29T06:36:44.024Z,101516.73
2019-05-29T06:39:15.175Z,101520.34
2019-05-29T06:41:46.197Z,101522.98
2019-05-29T06:44:20.905Z,101528.63
2019-05-29T06:46:53.553Z,101536.42
2019-05-29T06:49:24.623Z,101536.20
2019-05-29T06:51:55.783Z,101553.02
2019-05-29T06:54:26.848Z,101549.75
2019-05-29T06:56:57.907Z,101550.61
2019-05-29T06:59:29.767Z,101554.27
2019-05-29T07:02:00.862Z,101564.16
2019-05-29T07:04:33.499Z,101564.75
2019-05-29T07:07:04.554Z,101562.78
2019-05-29T07:09:36.805Z,101567.43
2019-05-29T07:12:07.938Z,101573.94
2019-05-29T07:14:40.040Z,101576.30
2019-05-29T07:17:11.434Z,101568.30
2019-05-29T07:19:53.969Z,101580.98
2019-05-29T07:22:15.250Z,101586.58
2019-05-29T07:24:48.576Z,101585.09
2019-05-29T07:27:19.591Z,101576.22
2019-05-29T07:29:51.464Z,101587.49
2019-05-29T07:32:23.307Z,101592.55
2019-05-29T07:35:03.049Z,101598.38
2019-05-29T07:37:27.220Z,101597.77
2019-05-29T07:39:58.348Z,101596.43
2019-05-29T07:42:29.365Z,101604.08
2019-05-29T07:45:00.487Z,101604.77
2019-05-29T07:47:31.525Z,101610.19
2019-05-29T07:50:04.209Z,101602.41
2019-05-29T07:52:36.086Z,101616.16
2019-05-29T07:55:08.035Z,101613.22
2019-05-29T07:57:39.086Z,101628.91
2019-05-29T08:00:12.586Z,101637.66
2019-05-29T08:02:43.636Z,101647.56
2019-05-29T08:05:16.295Z,101646.84
2019-05-29T08:07:49.689Z,101656.40
2019-05-29T08:10:21.035Z,101658.02
2019-05-29T08:12:55.594Z,101654.88
2019-05-29T08:15:24.995Z,101656.38
2019-05-29T08:17:56.035Z,101661.39
2019-05-29T08:20:28.553Z,101666.50
2019-05-29T08:22:59.652Z,101680.51
2019-05-29T08:25:30.785Z,101676.38
2019-05-29T08:28:01.831Z,101679.44
2019-05-29T08:30:35.371Z,101686.88
2019-05-29T08:33:10.483Z,101696.70
2019-05-29T08:35:43.258Z,101697.80
2019-05-29T08:38:15.898Z,101697.08
2019-05-29T08:40:47.401Z,101704.84
2019-05-29T08:43:18.595Z,101712.88
2019-05-29T08:45:52.524Z,101712.52
2019-05-29T08:48:24.731Z,101717.13
2019-05-29T08:50:55.867Z,101718.45
2019-05-29T08:53:26.909Z,101722.09
2019-05-29T08:55:59.410Z,101724.91
2019-05-29T08:58:30.476Z,101726.12
2019-05-29T09:01:02.359Z,101734.59
2019-05-29T09:03:33.392Z,101740.05
2019-05-29T09:06:08.863Z,101738.96
2019-05-29T09:08:37.339Z,101738.45
2019-05-29T09:11:08.450Z,101739.05
2019-05-29T09:13:40.963Z,101751.48
2019-05-29T09:16:12.807Z,101760.75
2019-05-29T09:18:45.304Z,101759.50
2019-05-29T09:21:19.073Z,101771.66
2019-05-29T09:23:50.294Z,101771.74
2019-05-29T09:26:24.647Z,101776.36
2019-05-29T09:28:54.215Z,101782.65
2019-05-29T09:31:25.416Z,101778.07
2019-05-29T09:33:58.106Z,101782.85
2019-05-29T09:36:29.179Z,101787.73
2019-05-29T09:39:00.196Z,101788.29
2019-05-29T09:41:31.318Z,101788.42
2019-05-29T09:44:02.545Z,101786.48
2019-05-29T09:46:33.865Z,101786.84
2019-05-29T09:49:05.187Z,101798.65
2019-05-29T09:51:36.324Z,101797.66
2019-05-29T09:54:07.392Z,101803.02
2019-05-29T09:56:38.485Z,101810.30
2019-05-29T09:59:09.523Z,101804.86
2019-05-29T10:01:41.399Z,101810.20
2019-05-29T10:04:12.450Z,101810.40
2019-05-29T10:06:43.593Z,101820.48
2019-05-29T10:09:14.697Z,101821.88
2019-05-29T10:11:48.825Z,101808.23
2019-05-29T10:14:19.865Z,101821.05
2019-05-29T10:16:50.997Z,101836.66
2019-05-29T10:19:23.725Z,101832.83
2019-05-29T10:21:54.879Z,101829.94
2019-05-29T10:24:27.093Z,101834.69
2019-05-29T10:26:59.052Z,101839.23
2019-05-29T10:29:31.001Z,101848.05
2019-05-29T10:32:04.689Z,101848.05
2019-05-29T10:34:38.930Z,101839.30
2019-05-29T10:37:10.070Z,101856.14
2019-05-29T10:39:42.883Z,101864.49
2019-05-29T10:42:15.417Z,101860.49
2019-05-29T10:44:49.068Z,101865.28
2019-05-29T10:47:21.841Z,101864.34
2019-05-29T10:49:53.811Z,101864.79
2019-05-29T10:52:28.134Z,101870.65
2019-05-29T10:54:59.171Z,101874.48
2019-05-29T10:57:30.519Z,101871.67
2019-05-29T11:00:04.628Z,101874.81
2019-05-29T11:02:36.536Z,101883.76
2019-05-29T11:05:07.724Z,101881.45
2019-05-29T11:07:38.952Z,101886.78
2019-05-29T11:10:13.607Z,101890.39
2019-05-29T11:12:44.279Z,101902.67
2019-05-29T11:15:21.544Z,101908.44
2019-05-29T11:17:50.998Z,101910.80
2019-05-29T11:20:22.947Z,101907.27
2019-05-29T11:22:55.682Z,101917.16
2019-05-29T11:25:27.897Z,101919.11
2019-05-29T11:27:59.010Z,101923.06
2019-05-29T11:30:30.096Z,101923.44
2019-05-29T11:33:02.015Z,101922.31
2019-05-29T11:35:33.137Z,101929.16
2019-05-29T11:38:05.769Z,101935.45
2019-05-29T11:40:37.014Z,101928.98
2019-05-29T11:43:08.231Z,101933.18
2019-05-29T11:45:39.347Z,101930.31
2019-05-29T11:48:11.312Z,101926.31
2019-05-29T11:50:43.375Z,101929.18
2019-05-29T11:53:14.422Z,101932.43
2019-05-29T11:55:45.453Z,101939.91
2019-05-29T11:58:30.578Z,101943.09
2019-05-29T12:00:49.289Z,101945.25
2019-05-29T12:03:22.792Z,101943.45
2019-05-29T12:05:55.475Z,101952.05
2019-05-29T12:08:26.664Z,101958.13
2019-05-29T12:10:57.702Z,101950.53
2019-05-29T12:13:28.775Z,101969.63
2019-05-29T12:16:01.822Z,101971.25
2019-05-29T12:18:33.803Z,101973.62
2019-05-29T12:21:04.835Z,101969.52
2019-05-29T12:23:35.980Z,101970.79
2019-05-29T12:26:21.986Z,101970.10
2019-05-29T12:28:39.768Z,101974.50
2019-05-29T12:31:10.846Z,101969.17
2019-05-29T12:33:42.732Z,101979.61
2019-05-29T12:36:15.465Z,101978.86
2019-05-29T12:38:46.516Z,101982.66
2019-05-29T12:41:17.663Z,101983.09
2019-05-29T12:43:50.371Z,101994.41
2019-05-29T12:46:21.413Z,101980.11
2019-05-29T12:48:53.465Z,101997.62
2019-05-29T12:51:24.556Z,101996.80
2019-05-29T12:53:57.897Z,101991.33
2019-05-29T12:56:32.278Z,101999.50
2019-05-29T12:59:04.681Z,101993.66
2019-05-29T13:01:35.804Z,101986.58
2019-05-29T13:04:07.814Z,102008.77
2019-05-29T13:06:39.984Z,102004.21
2019-05-29T13:09:11.027Z,102008.18
2019-05-29T13:11:43.485Z,102014.30
2019-05-29T13:14:16.059Z,102017.83
2019-05-29T13:16:47.116Z,102015.66
2019-05-29T13:19:19.822Z,102010.44
2019-05-29T13:21:50.903Z,102014.11
2019-05-29T13:24:21.947Z,102011.41
2019-05-29T13:26:52.972Z,102020.74
2019-05-29T13:29:24.115Z,102027.08
2019-05-29T13:31:57.126Z,102018.41
2019-05-29T13:34:28.004Z,102027.55
2019-05-29T13:37:03.438Z,102030.88
2019-05-29T13:39:32.141Z,102022.42
2019-05-29T13:42:08.850Z,102023.38
2019-05-29T13:44:35.979Z,102030.31
2019-05-29T13:47:08.462Z,102030.11
2019-05-29T13:49:41.260Z,102036.20
2019-05-29T13:52:12.781Z,102041.61
2019-05-29T13:54:44.021Z,102038.91
2019-05-29T13:57:16.646Z,102039.47
2019-05-29T13:59:47.716Z,102044.81
2019-05-29T14:02:18.739Z,102048.04
2019-05-29T14:04:52.754Z,102048.44
2019-05-29T14:07:23.790Z,102049.77
2019-05-29T14:09:54.872Z,102051.42
2019-05-29T14:12:25.922Z,102053.32
2019-05-29T14:14:56.986Z,102053.32
2019-05-29T14:17:28.033Z,102054.06
2019-05-29T14:20:00.510Z,102058.83
2019-05-29T14:22:31.610Z,102055.33
2019-05-29T14:25:03.232Z,102058.05
2019-05-29T14:27:34.286Z,102058.22
2019-05-29T14:30:10.931Z,102055.86
2019-05-29T14:32:42.214Z,102064.64
2019-05-29T14:35:14.293Z,102055.67
2019-05-29T14:37:48.543Z,102065.74
2019-05-29T14:40:20.769Z,102057.73
2019-05-29T14:42:51.890Z,102070.39
2019-05-29T14:45:26.062Z,102072.48
2019-05-29T14:48:00.328Z,102084.30
2019-05-29T14:50:34.621Z,102087.36
2019-05-29T14:53:07.209Z,102085.66
2019-05-29T14:55:39.296Z,102077.91
2019-05-29T14:58:10.334Z,102091.98
2019-05-29T15:00:41.505Z,102085.30
2019-05-29T15:03:13.587Z,102084.05
2019-05-29T15:05:45.585Z,102087.79
2019-05-29T15:08:16.643Z,102097.46
2019-05-29T15:10:47.724Z,102099.70
2019-05-29T15:13:18.754Z,102098.98
2019-05-29T15:15:49.858Z,102103.48
2019-05-29T15:18:20.921Z,102106.45
2019-05-29T15:20:54.322Z,102107.52
2019-05-29T15:23:25.399Z,102104.77
2019-05-29T15:25:56.479Z,102111.63
2019-05-29T15:28:27.534Z,102111.87
2019-05-29T15:31:00.165Z,102109.99
2019-05-29T15:33:31.346Z,102109.67
2019-05-29T15:36:03.500Z,102112.48
2019-05-29T15:38:35.406Z,102120.26
2019-05-29T15:41:06.681Z,102112.81
2019-05-29T15:43:39.149Z,102118.67
2019-05-29T15:46:11.776Z,102119.91
2019-05-29T15:48:44.756Z,102110.39
2019-05-29T15:51:17.166Z,102113.61
2019-05-29T15:53:48.295Z,102115.47
2019-05-29T15:56:27.430Z,102125.80
2019-05-29T15:58:53.596Z,102122.67
2019-05-29T16:01:24.676Z,102121.34
2019-05-29T16:03:55.728Z,102128.86
2019-05-29T16:06:30.614Z,102122.63
2019-05-29T16:09:01.659Z,102121.03
2019-05-29T16:11:34.294Z,102117.86
2019-05-29T16:14:08.925Z,102127.17
2019-05-29T16:16:40.027Z,102134.59
2019-05-29T16:19:12.088Z,102134.98
2019-05-29T16:21:44.084Z,102135.86
2019-05-29T16:24:15.151Z,102134.93
2019-05-29T16:26:46.241Z,102140.25
2019-05-29T16:29:18.200Z,102140.25
2019-05-29T16:31:50.106Z,102141.73
2019-05-29T16:34:21.974Z,102138.30
2019-05-29T16:36:54.870Z,102145.81
2019-05-29T16:39:25.921Z,102145.04
2019-05-29T16:41:57.059Z,102142.23
2019-05-29T16:44:29.601Z,102152.45
2019-05-29T16:47:02.374Z,102149.28
2019-05-29T16:49:33.438Z,102157.77
2019-05-29T16:52:04.771Z,102156.84
2019-05-29T16:54:37.389Z,102161.30
2019-05-29T16:57:08.448Z,102163.64
2019-05-29T16:59:39.509Z,102171.41
2019-05-29T17:02:13.542Z,102176.55
2019-05-29T17:04:44.847Z,102177.91
2019-05-29T17:07:18.363Z,102173.52
2019-05-29T17:09:49.424Z,102191.69
2019-05-29T17:12:20.578Z,102187.72
2019-05-29T17:14:53.083Z,102195.78
2019-05-29T17:17:25.701Z,102198.27
2019-05-29T17:19:56.751Z,102197.95
2019-05-29T17:22:28.750Z,102202.02
2019-05-29T17:25:01.403Z,102203.34
2019-05-29T17:27:32.470Z,102205.08
2019-05-29T17:30:03.624Z,102210.30
2019-05-29T17:32:35.493Z,102214.89
2019-05-29T17:35:08.904Z,102219.69
2019-05-29T17:37:41.944Z,102220.67
2019-05-29T17:40:15.022Z,102223.78
2019-05-29T17:42:46.096Z,102224.33
2019-05-29T17:45:21.350Z,102224.19
2019-05-29T17:47:50.836Z,102230.83
2019-05-29T17:50:26.352Z,102231.52
2019-05-29T17:52:57.119Z,102232.98
2019-05-29T17:55:28.215Z,102234.45
2019-05-29T17:58:02.476Z,102235.45
2019-05-29T18:00:33.707Z,102240.84
2019-05-29T18:03:05.403Z,102240.06
2019-05-29T18:05:36.958Z,102241.94
2019-05-29T18:08:10.696Z,102245.52
2019-05-29T18:10:41.745Z,102248.80
2019-05-29T18:13:12.876Z,102256.98
2019-05-29T18:15:43.998Z,102255.01
2019-05-29T18:18:15.196Z,102257.80
2019-05-29T18:20:46.346Z,102259.26
2019-05-29T18:23:19.977Z,102256.50
2019-05-29T18:25:51.105Z,102262.42
2019-05-29T18:28:22.307Z,102263.56
2019-05-29T18:30:53.344Z,102266.10
2019-05-29T18:33:24.926Z,102269.97
2019-05-29T18:35:56.094Z,102266.61
2019-05-29T18:38:28.732Z,102267.73
2019-05-29T18:41:02.435Z,102277.30
2019-05-29T18:43:33.547Z,102283.27
2019-05-29T18:46:04.606Z,102283.49
2019-05-29T18:48:35.717Z,102292.64
2019-05-29T18:51:09.846Z,102293.88
2019-05-29T18:53:42.552Z,102293.66
2019-05-29T18:56:13.629Z,102295.84
2019-05-29T18:58:44.768Z,102304.64
2019-05-29T19:01:15.821Z,102306.70
2019-05-29T19:03:46.920Z,102312.23
2019-05-29T19:06:17.963Z,102309.86
2019-05-29T19:08:50.717Z,102313.56
2019-05-29T19:11:21.913Z,102313.41
2019-05-29T19:13:53.030Z,102322.00
2019-05-29T19:16:24.105Z,102328.47
2019-05-29T19:18:55.233Z,102327.91
2019-05-29T19:21:28.437Z,102330.88
2019-05-29T19:24:00.434Z,102332.08
2019-05-29T19:26:35.360Z,102337.66
2019-05-29T19:29:04.600Z,102339.77
2019-05-29T19:31:35.660Z,102343.60
2019-05-29T19:34:06.810Z,102338.63
2019-05-29T19:36:37.876Z,102346.01
2019-05-29T19:39:11.042Z,102353.41
2019-05-29T19:41:42.885Z,102351.05
2019-05-29T19:44:13.981Z,102352.19
2019-05-29T19:46:53.772Z,102353.84
2019-05-29T19:49:17.872Z,102359.84
2019-05-29T19:51:48.948Z,102364.48
2019-05-29T19:54:23.113Z,102369.22
2019-05-29T19:56:54.165Z,102370.34
2019-05-29T19:59:27.943Z,102374.24
2019-05-29T20:01:59.049Z,102372.72
2019-05-29T20:04:30.600Z,102375.61
2019-05-29T20:07:01.667Z,102379.81
2019-05-29T20:09:33.599Z,102380.13
2019-05-29T20:12:07.404Z,102381.62
2019-05-29T20:14:38.501Z,102387.11
2019-05-29T20:17:09.582Z,102394.88
2019-05-29T20:19:41.054Z,102398.16
2019-05-29T20:22:12.223Z,102400.97
2019-05-29T20:24:45.696Z,102397.22
2019-05-29T20:27:16.726Z,102400.41
2019-05-29T20:29:49.241Z,102404.00
2019-05-29T20:32:23.027Z,102407.73
2019-05-29T20:34:54.101Z,102408.31
2019-05-29T20:37:25.253Z,102411.09
2019-05-29T20:39:57.310Z,102412.55
2019-05-29T20:42:30.111Z,102413.50
2019-05-29T20:45:04.455Z,102414.50
2019-05-29T20:47:36.127Z,102415.90
2019-05-29T20:50:08.958Z,102418.61
2019-05-29T20:52:41.346Z,102418.75
2019-05-29T20:55:13.682Z,102418.48
2019-05-29T20:57:46.397Z,102412.47
2019-05-29T21:00:18.709Z,102415.25
2019-05-29T21:02:49.725Z,102420.70
2019-05-29T21:05:22.344Z,102425.66
2019-05-29T21:07:53.410Z,102418.72
2019-05-29T21:10:26.282Z,102431.20
2019-05-29T21:12:58.938Z,102427.38
2019-05-29T21:15:30.050Z,102434.53
2019-05-29T21:18:01.090Z,102431.14
2019-05-29T21:20:32.209Z,102437.41
2019-05-29T21:23:03.343Z,102437.90
2019-05-29T21:25:36.824Z,102442.36
2019-05-29T21:28:08.086Z,102438.06
2019-05-29T21:30:39.469Z,102439.02
2019-05-29T21:33:10.691Z,102439.95
2019-05-29T21:35:42.224Z,102448.34
2019-05-29T21:38:13.281Z,102448.41
2019-05-29T21:40:45.206Z,102457.64
2019-05-29T21:43:17.068Z,102460.77
2019-05-29T21:45:48.306Z,102459.93
2019-05-29T21:48:19.398Z,102450.28
2019-05-29T21:50:50.444Z,102462.13
2019-05-29T21:53:21.508Z,102460.89
2019-05-29T21:55:53.403Z,102463.52
2019-05-29T21:58:25.992Z,102465.75
2019-05-29T22:00:57.473Z,102467.56
2019-05-29T22:03:28.735Z,102468.01
2019-05-29T22:05:59.940Z,102468.95
2019-05-29T22:08:31.047Z,102469.01
2019-05-29T22:11:02.316Z,102469.01
2019-05-29T22:13:33.475Z,102469.92
2019-05-29T22:16:06.044Z,102477.89
2019-05-29T22:18:40.326Z,102472.69
2019-05-29T22:21:11.414Z,102476.23
2019-05-29T22:23:42.850Z,102470.98
2019-05-29T22:26:14.906Z,102478.50
2019-05-29T22:28:47.583Z,102479.91
2019-05-29T22:31:20.137Z,102481.69
2019-05-29T22:33:51.519Z,102482.60
2019-05-29T22:36:22.724Z,102485.73
2019-05-29T22:38:55.517Z,102486.61
2019-05-29T22:41:27.435Z,102484.95
2019-05-29T22:43:59.765Z,102484.13
2019-05-29T22:46:32.595Z,102480.19
2019-05-29T22:49:03.658Z,102485.94
2019-05-29T22:51:36.324Z,102484.62
2019-05-29T22:54:07.361Z,102484.68
2019-05-29T22:56:39.324Z,102481.28
2019-05-29T22:59:10.394Z,102484.05
2019-05-29T23:01:41.477Z,102482.36
2019-05-29T23:04:13.983Z,102485.89
2019-05-29T23:06:48.062Z,102478.09
2019-05-29T23:09:22.424Z,102477.27
2019-05-29T23:11:54.156Z,102481.74
2019-05-29T23:14:27.947Z,102476.54
2019-05-29T23:16:59.040Z,102482.73
2019-05-29T23:19:30.080Z,102472.30
2019-05-29T23:22:02.870Z,102473.66
2019-05-29T23:24:33.952Z,102478.10
2019-05-29T23:27:07.342Z,102482.09
2019-05-29T23:29:49.044Z,102478.63
2019-05-29T23:32:14.084Z,102489.16
2019-05-29T23:34:46.624Z,102485.25
2019-05-29T23:37:17.694Z,102485.70
2019-05-29T23:39:48.762Z,102480.05
2019-05-29T23:42:20.656Z,102482.28
2019-05-29T23:44:53.938Z,102476.16
2019-05-29T23:47:26.816Z,102479.26
2019-05-29T23:49:57.881Z,102481.94
2019-05-29T23:52:29.051Z,102481.11
2019-05-29T23:55:00.090Z,102478.09
2019-05-29T23:57:34.974Z,102482.52
